Terminal Aerodrome Forecast
Issued by NWS

Home | Current Version | Previous Version | Text Only | Print | Product List | Glossary Off
Versions: 1 2 3 4 5 6 7 8 9 10 11 12 13 14 15 16 17 18

000
FTUS43 KGRB 221739
TAFCWA
TAF
KCWA 221739Z 2218/2318 19004KT P6SM BKN120
     FM230200 32005KT P6SM SCT020 BKN070
     FM230500 34006KT P6SM BKN018
     FM231500 01007G14KT P6SM SCT018 BKN200=

USA.gov is the U.S. government's official web portal to all federal, state and local government web resources and services.